EDDH/HAM METAR and TAF weather

Enter ICAO airport designator
Station Type Date Time Source
EDDH METAR 2020/03/31 13:50 UTC NOAA

EDDH 311350Z 29007KT 240V330 CAVOK 08/M05 Q1030 NOSIG


Station Type Date Time Source
EDDH Decoded METAR 2020/03/31 13:50 UTC NOAA

Hamburg-Fuhlsbuettel, Germany (EDDH) 53-38N 010-00E 15M
Mar 31, 2020 - 09:50 AM EDT / 2020.03.31 1350 UTC
Wind: from the WNW (290 degrees) at 8 MPH (7 KT) (direction variable):0
Visibility: greater than 7 mile(s):0
Temperature: 46 F (8 C)
Dew Point: 23 F (-5 C)
Relative Humidity: 39%
Pressure (altimeter): 30.42 in. Hg (1030 hPa)
ob: EDDH 311350Z 29007KT 240V330 CAVOK 08/M05 Q1030 NOSIG
cycle: 14

Station Type Date Time Source
EDDH TAF 2020/03/31 12:35 UTC NOAA

TAF EDDH 311100Z 3112/0118 30006KT 9999 BKN035
BECMG 3118/3120 24005KT
BECMG 0103/0105 25010KT
BECMG 0105/0107 BKN012
TEMPO 0105/0108 BKN007 PROB30
TEMPO 0105/0107 3500 -RASN BKN004

Example: see airport list